Time;durP1;ratioP1;P1;durP2;ratioP2;P2;SDS_P1;SDS_P2;PMS_P1;PMS_P2;Temp;Humidity;BMP_temperature;BMP_pressure;BME280_temperature;BME280_humidity;BME280_pressure;Samples;Min_cycle;Max_cycle;Signal;HPM_P1;HPM_P2
2023/03/09 00:00:17;;;;;;;14.65;6.22;;;2.50;99.90;;;;;;5070325;28;20119;-64
2023/03/09 00:02:42;;;;;;;10.55;6.28;;;2.50;99.90;;;;;;5070341;28;20044;-63
2023/03/09 00:05:11;;;;;;;13.95;7.22;;;2.50;99.90;;;;;;5070221;28;20067;-63
2023/03/09 00:07:37;;;;;;;11.80;6.68;;;2.50;99.90;;;;;;5070072;28;20075;-63
2023/03/09 00:10:03;;;;;;;12.93;7.28;;;2.50;99.90;;;;;;5070257;28;20683;-63
2023/03/09 00:12:29;;;;;;;11.43;6.93;;;2.60;99.90;;;;;;5069949;28;20044;-64
2023/03/09 00:14:55;;;;;;;11.40;7.13;;;2.50;99.90;;;;;;5069681;28;20466;-64
2023/03/09 00:17:21;;;;;;;11.88;7.47;;;2.50;99.90;;;;;;5069611;28;20119;-63
2023/03/09 00:19:47;;;;;;;12.02;7.00;;;2.40;99.90;;;;;;5069931;28;20098;-63
2023/03/09 00:22:13;;;;;;;13.18;6.85;;;2.40;99.90;;;;;;5069992;28;20072;-63
2023/03/09 00:24:45;;;;;;;11.88;7.45;;;2.40;99.90;;;;;;5069701;28;20507;-64
2023/03/09 00:27:12;;;;;;;12.75;6.40;;;2.40;99.90;;;;;;5069968;28;20044;-63
2023/03/09 00:29:37;;;;;;;12.30;7.25;;;2.40;99.90;;;;;;5069633;28;20556;-63
2023/03/09 00:32:04;;;;;;;13.57;8.05;;;2.40;99.90;;;;;;5069778;28;20128;-63
2023/03/09 00:34:29;;;;;;;15.32;7.25;;;2.30;99.90;;;;;;5069230;28;20672;-63
2023/03/09 00:36:55;;;;;;;13.70;7.97;;;2.30;99.90;;;;;;5069011;28;20090;-63
2023/03/09 00:39:21;;;;;;;16.17;8.55;;;2.30;99.90;;;;;;5069488;28;20075;-63
2023/03/09 00:41:46;;;;;;;16.00;8.63;;;2.20;99.90;;;;;;5069490;28;20500;-64
2023/03/09 00:44:13;;;;;;;15.52;8.82;;;2.20;99.90;;;;;;5069127;28;20539;-63
2023/03/09 00:46:40;;;;;;;16.48;8.70;;;2.20;99.90;;;;;;5068881;28;20045;-63
2023/03/09 00:49:06;;;;;;;16.17;8.13;;;2.10;99.90;;;;;;5069359;28;20410;-63
2023/03/09 00:51:33;;;;;;;18.85;8.80;;;2.10;99.90;;;;;;5069235;28;20040;-63
2023/03/09 00:53:58;;;;;;;15.35;8.95;;;2.10;99.90;;;;;;5068951;28;20108;-63
2023/03/09 00:56:26;;;;;;;16.98;8.68;;;2.10;99.90;;;;;;5067526;28;20123;-63
2023/03/09 00:58:52;;;;;;;16.52;8.68;;;2.10;99.90;;;;;;5068840;28;20047;-63
2023/03/09 01:01:18;;;;;;;13.25;8.00;;;2.10;99.90;;;;;;5068992;28;20052;-63
2023/03/09 01:03:44;;;;;;;17.13;8.52;;;2.10;99.90;;;;;;5068740;28;20056;-63
2023/03/09 01:06:10;;;;;;;15.02;8.68;;;2.10;99.90;;;;;;5068695;28;20090;-63
2023/03/09 01:08:36;;;;;;;15.35;8.13;;;2.10;99.90;;;;;;5068558;28;20036;-63
2023/03/09 01:11:06;;;;;;;20.70;8.82;;;2.00;99.90;;;;;;5068442;28;20051;-63
2023/03/09 01:13:32;;;;;;;17.55;8.00;;;2.00;99.90;;;;;;5068409;28;20040;-63
2023/03/09 01:15:57;;;;;;;13.10;7.60;;;2.00;99.90;;;;;;5068479;28;20047;-63
2023/03/09 01:18:23;;;;;;;16.20;8.52;;;2.00;99.90;;;;;;5068757;28;20411;-63
2023/03/09 01:20:49;;;;;;;14.77;7.65;;;2.00;99.90;;;;;;5068609;28;20039;-63
2023/03/09 01:23:14;;;;;;;14.65;8.23;;;2.00;99.90;;;;;;5068603;28;20028;-63
2023/03/09 01:25:40;;;;;;;16.98;8.90;;;2.00;99.90;;;;;;5068410;28;20554;-63
2023/03/09 01:28:05;;;;;;;15.80;8.82;;;1.90;99.90;;;;;;5068567;28;20131;-63
2023/03/09 01:30:31;;;;;;;15.43;8.30;;;2.00;99.90;;;;;;5068523;28;20123;-63
2023/03/09 01:32:57;;;;;;;14.88;7.78;;;1.90;99.90;;;;;;5068777;28;20460;-64
2023/03/09 01:35:23;;;;;;;15.63;8.02;;;2.00;99.90;;;;;;5068271;28;20080;-63
2023/03/09 01:37:48;;;;;;;16.48;9.20;;;2.00;99.90;;;;;;5068341;28;20072;-63
2023/03/09 01:40:20;;;;;;;13.50;7.82;;;1.90;99.90;;;;;;5068270;28;20378;-63
2023/03/09 01:43:00;;;;;;;16.88;7.47;;;1.90;99.90;;;;;;5068520;28;20741;-64
2023/03/09 01:45:29;;;;;;;14.13;7.88;;;1.90;99.90;;;;;;5068403;28;20044;-63
2023/03/09 01:47:58;;;;;;;14.38;7.20;;;1.80;99.90;;;;;;5068157;28;20063;-63
2023/03/09 01:50:34;;;;;;;14.95;8.32;;;1.80;99.90;;;;;;5068054;28;20493;-63
2023/03/09 01:53:09;;;;;;;14.60;8.35;;;1.80;99.90;;;;;;5068220;28;20044;-63
2023/03/09 01:55:43;;;;;;;17.30;8.88;;;1.80;99.90;;;;;;5067723;28;20090;-63
2023/03/09 01:58:16;;;;;;;17.50;8.40;;;1.80;99.90;;;;;;5068096;28;20044;-63
2023/03/09 02:00:45;;;;;;;15.27;7.25;;;1.90;99.90;;;;;;5068108;28;20083;-63
2023/03/09 02:03:22;;;;;;;13.13;7.55;;;1.80;99.90;;;;;;5068191;28;20117;-63
2023/03/09 02:05:51;;;;;;;14.73;7.70;;;1.80;99.90;;;;;;5067840;28;20049;-63
2023/03/09 02:08:18;;;;;;;16.40;8.27;;;1.80;99.90;;;;;;5067967;28;20045;-63
2023/03/09 02:10:58;;;;;;;12.90;7.82;;;1.80;99.90;;;;;;5067966;28;20037;-63
2023/03/09 02:13:38;;;;;;;13.70;7.95;;;1.90;99.90;;;;;;5067918;28;20040;-63
2023/03/09 02:16:04;;;;;;;14.43;7.55;;;1.80;99.90;;;;;;5067773;28;20068;-63
2023/03/09 02:18:30;;;;;;;13.90;8.55;;;1.80;99.90;;;;;;5067916;28;20068;-63
2023/03/09 02:21:04;;;;;;;12.43;7.90;;;1.80;99.90;;;;;;5067478;28;20501;-63
2023/03/09 02:23:55;;;;;;;14.45;8.23;;;1.80;99.90;;;;;;5067919;28;20037;-63
2023/03/09 02:27:02;;;;;;;13.15;7.90;;;1.80;99.90;;;;;;5067883;28;20048;-63
2023/03/09 02:29:28;;;;;;;15.30;8.15;;;1.80;99.90;;;;;;5063485;28;20109;-64
2023/03/09 02:31:54;;;;;;;14.02;7.97;;;1.80;99.90;;;;;;5067658;28;20093;-63
2023/03/09 02:34:20;;;;;;;15.88;8.38;;;1.80;99.90;;;;;;5067539;28;20040;-64
2023/03/09 02:36:45;;;;;;;15.05;7.97;;;1.80;99.90;;;;;;5067393;28;20044;-63
2023/03/09 02:39:23;;;;;;;14.02;7.25;;;1.80;99.90;;;;;;5067370;28;20052;-63
2023/03/09 02:41:50;;;;;;;16.50;8.10;;;1.80;99.90;;;;;;5067528;28;20872;-63
2023/03/09 02:44:16;;;;;;;15.57;8.10;;;1.80;99.90;;;;;;5067351;28;20119;-63
2023/03/09 02:46:41;;;;;;;12.55;7.47;;;1.80;99.90;;;;;;5067323;28;20049;-63
2023/03/09 02:49:07;;;;;;;15.75;8.10;;;1.80;99.90;;;;;;5067392;28;20119;-63
2023/03/09 02:51:32;;;;;;;13.55;7.93;;;1.80;99.90;;;;;;5067322;28;20691;-63
2023/03/09 02:53:58;;;;;;;14.38;7.75;;;1.90;99.90;;;;;;5067225;28;20040;-63
2023/03/09 02:56:23;;;;;;;16.48;8.57;;;1.80;99.90;;;;;;5067521;28;20060;-64
2023/03/09 02:58:49;;;;;;;13.57;8.45;;;1.90;99.90;;;;;;5067338;28;20093;-64
2023/03/09 03:01:14;;;;;;;15.90;8.52;;;1.80;99.90;;;;;;5069971;28;20044;-64
2023/03/09 03:03:40;;;;;;;16.45;7.80;;;1.90;99.90;;;;;;5070855;28;20040;-64
2023/03/09 03:06:06;;;;;;;19.20;8.88;;;1.90;99.90;;;;;;5070855;28;20040;-63
2023/03/09 03:08:32;;;;;;;14.65;7.88;;;1.90;99.90;;;;;;5070896;28;20089;-64
2023/03/09 03:10:57;;;;;;;15.05;8.68;;;1.90;99.90;;;;;;5070830;28;20115;-64
2023/03/09 03:13:23;;;;;;;16.20;8.15;;;1.90;99.90;;;;;;5070796;28;20498;-64
2023/03/09 03:15:49;;;;;;;17.92;8.73;;;1.90;99.90;;;;;;5070702;28;20111;-64
2023/03/09 03:18:14;;;;;;;15.75;8.75;;;1.90;99.90;;;;;;5071037;28;20401;-64
2023/03/09 03:20:41;;;;;;;17.27;9.02;;;1.90;99.90;;;;;;5071161;28;20187;-63
2023/03/09 03:23:06;;;;;;;14.38;8.10;;;1.90;99.90;;;;;;5070853;28;20119;-64
2023/03/09 03:25:35;;;;;;;18.35;8.65;;;1.80;99.90;;;;;;5070546;28;20469;-64
2023/03/09 03:28:02;;;;;;;17.75;9.50;;;1.90;99.90;;;;;;5070544;28;20063;-64
2023/03/09 03:30:27;;;;;;;15.80;8.18;;;1.90;99.90;;;;;;5070791;28;20036;-64
2023/03/09 03:32:53;;;;;;;18.35;9.13;;;1.90;99.90;;;;;;5070559;28;20090;-64
2023/03/09 03:35:19;;;;;;;15.90;9.00;;;1.80;99.90;;;;;;5070578;28;20048;-63
2023/03/09 03:37:45;;;;;;;16.65;8.48;;;1.80;99.90;;;;;;5070387;28;20044;-63
2023/03/09 03:40:11;;;;;;;16.05;8.52;;;1.80;99.90;;;;;;5070483;28;20401;-64
2023/03/09 03:42:37;;;;;;;16.90;8.88;;;1.70;99.90;;;;;;5070209;28;20048;-64
2023/03/09 03:45:03;;;;;;;17.13;8.27;;;1.80;99.90;;;;;;5069784;28;20051;-63
2023/03/09 03:47:28;;;;;;;18.52;9.20;;;1.70;99.90;;;;;;5069868;28;20428;-64
2023/03/09 03:49:54;;;;;;;17.52;9.10;;;1.70;99.90;;;;;;5070086;28;20040;-64
2023/03/09 03:52:19;;;;;;;18.08;9.25;;;1.70;99.90;;;;;;5070176;28;20410;-64
2023/03/09 03:54:45;;;;;;;18.15;9.73;;;1.70;99.90;;;;;;5069886;28;20037;-64
2023/03/09 03:57:10;;;;;;;18.00;9.73;;;1.80;99.90;;;;;;5070254;28;20086;-64
2023/03/09 03:59:36;;;;;;;17.58;9.27;;;1.80;99.90;;;;;;5070192;28;20455;-63
2023/03/09 04:02:01;;;;;;;18.75;9.98;;;1.80;99.90;;;;;;5070211;28;20040;-63
2023/03/09 04:04:27;;;;;;;16.88;9.18;;;1.80;99.90;;;;;;5069855;28;20051;-63
2023/03/09 04:06:53;;;;;;;21.20;10.07;;;1.80;99.90;;;;;;5069937;28;20048;-63
2023/03/09 04:09:18;;;;;;;17.10;8.48;;;1.80;99.90;;;;;;5069906;28;20039;-63
2023/03/09 04:11:45;;;;;;;19.58;9.70;;;1.80;99.90;;;;;;5068658;28;20517;-63
2023/03/09 04:14:11;;;;;;;17.55;9.68;;;1.80;99.90;;;;;;5069522;28;20473;-63
2023/03/09 04:16:38;;;;;;;17.80;10.00;;;1.80;99.90;;;;;;5069378;28;20087;-63
2023/03/09 04:19:04;;;;;;;20.88;10.82;;;1.80;99.90;;;;;;5069372;28;20554;-63
2023/03/09 04:21:30;;;;;;;20.70;10.43;;;1.80;99.90;;;;;;5069563;28;20044;-63
2023/03/09 04:23:55;;;;;;;20.50;9.50;;;1.80;99.90;;;;;;5069212;28;20064;-63
2023/03/09 04:26:21;;;;;;;18.77;10.85;;;1.80;99.90;;;;;;5069461;28;20536;-63
2023/03/09 04:28:46;;;;;;;19.40;9.77;;;1.80;99.90;;;;;;5069422;28;20039;-64
2023/03/09 04:31:12;;;;;;;21.65;11.32;;;1.80;99.90;;;;;;5069171;28;20036;-64
2023/03/09 04:33:42;;;;;;;20.65;9.90;;;1.80;99.90;;;;;;5067763;28;20083;-64
2023/03/09 04:36:11;;;;;;;17.92;9.65;;;1.80;99.90;;;;;;5069209;28;20072;-63
2023/03/09 04:38:37;;;;;;;19.58;9.82;;;1.90;99.90;;;;;;5069190;28;20078;-64
2023/03/09 04:41:03;;;;;;;17.33;8.93;;;1.90;99.90;;;;;;5069151;28;20048;-64
2023/03/09 04:43:29;;;;;;;19.60;10.05;;;1.80;99.90;;;;;;5069020;28;20037;-64
2023/03/09 04:45:54;;;;;;;21.52;9.52;;;1.80;99.90;;;;;;5068953;28;20043;-64
2023/03/09 04:48:20;;;;;;;19.85;9.57;;;1.80;99.90;;;;;;5069175;28;20098;-64
2023/03/09 04:50:45;;;;;;;16.90;9.15;;;1.80;99.90;;;;;;5068931;28;20519;-64
2023/03/09 04:53:11;;;;;;;19.30;9.60;;;1.90;99.90;;;;;;5069084;28;20066;-64
2023/03/09 04:55:37;;;;;;;19.52;10.60;;;1.80;99.90;;;;;;5068604;28;20122;-64
2023/03/09 04:58:04;;;;;;;18.00;10.15;;;1.80;99.90;;;;;;5068988;28;20048;-64
2023/03/09 05:00:30;;;;;;;17.75;9.50;;;1.80;99.90;;;;;;5069053;28;20101;-64
2023/03/09 05:02:56;;;;;;;17.83;9.88;;;1.80;99.90;;;;;;5068605;28;20141;-64
2023/03/09 05:05:22;;;;;;;19.23;11.18;;;1.80;99.90;;;;;;5068271;28;20402;-64
2023/03/09 05:07:47;;;;;;;19.25;8.95;;;1.80;99.90;;;;;;5068689;28;20047;-64
2023/03/09 05:10:13;;;;;;;18.33;9.80;;;1.80;99.90;;;;;;5068892;28;20113;-64
2023/03/09 05:12:38;;;;;;;17.65;10.50;;;1.80;99.90;;;;;;5068282;28;20043;-64
2023/03/09 05:15:05;;;;;;;17.85;10.05;;;1.80;99.90;;;;;;5068049;28;20044;-64
2023/03/09 05:17:31;;;;;;;18.27;9.02;;;1.80;99.90;;;;;;5068492;28;20040;-64
2023/03/09 05:19:56;;;;;;;17.65;10.02;;;1.70;99.90;;;;;;5068688;28;20048;-64
2023/03/09 05:22:22;;;;;;;18.60;9.90;;;1.70;99.90;;;;;;5068520;28;20538;-64
2023/03/09 05:24:48;;;;;;;17.73;9.50;;;1.70;99.90;;;;;;5067864;28;20080;-64
2023/03/09 05:27:13;;;;;;;16.73;9.77;;;1.70;99.90;;;;;;5068660;28;20036;-64
2023/03/09 05:29:40;;;;;;;14.73;8.82;;;1.80;99.90;;;;;;5068333;28;20037;-63
2023/03/09 05:32:06;;;;;;;18.73;9.40;;;1.80;99.90;;;;;;5068319;28;20032;-63
2023/03/09 05:34:33;;;;;;;19.40;9.68;;;1.80;99.90;;;;;;5067756;28;20041;-63
2023/03/09 05:36:59;;;;;;;18.25;9.77;;;1.80;99.90;;;;;;5068270;28;20040;-63
2023/03/09 05:39:24;;;;;;;20.50;10.23;;;1.80;99.90;;;;;;5068105;28;20119;-64
2023/03/09 05:41:50;;;;;;;24.13;10.48;;;1.80;99.90;;;;;;5068027;28;20040;-63
2023/03/09 05:44:15;;;;;;;20.02;9.75;;;1.80;99.90;;;;;;5067655;28;20050;-64
2023/03/09 05:46:41;;;;;;;19.55;9.90;;;1.80;99.90;;;;;;5068089;28;20503;-63
2023/03/09 05:49:07;;;;;;;17.77;10.15;;;1.80;99.90;;;;;;5068187;28;20450;-63
2023/03/09 05:51:33;;;;;;;19.38;10.95;;;1.80;99.90;;;;;;5068092;28;20028;-63
2023/03/09 05:53:58;;;;;;;21.50;10.98;;;1.80;99.90;;;;;;5067910;28;20040;-63
2023/03/09 05:56:24;;;;;;;21.83;12.05;;;1.80;99.90;;;;;;5068118;28;20377;-64
2023/03/09 05:58:50;;;;;;;21.13;10.50;;;1.80;99.90;;;;;;5067988;28;20048;-64
2023/03/09 06:01:25;;;;;;;20.42;10.88;;;1.80;99.90;;;;;;5068075;28;20044;-64
2023/03/09 06:03:51;;;;;;;25.58;12.00;;;1.80;99.90;;;;;;5067896;28;20040;-63
2023/03/09 06:06:16;;;;;;;21.35;11.30;;;1.80;99.90;;;;;;5068029;28;20040;-63
2023/03/09 06:08:42;;;;;;;24.15;11.43;;;1.80;99.90;;;;;;5067831;28;20047;-64
2023/03/09 06:11:08;;;;;;;20.88;10.82;;;1.80;99.90;;;;;;5067545;28;20055;-64
2023/03/09 06:13:33;;;;;;;26.00;12.00;;;1.80;99.90;;;;;;5067625;28;20089;-64
2023/03/09 06:16:03;;;;;;;28.05;12.30;;;1.80;99.90;;;;;;5067230;28;20177;-63
2023/03/09 06:18:28;;;;;;;22.10;11.20;;;1.80;99.90;;;;;;5065204;28;20041;-63
2023/03/09 06:20:58;;;;;;;22.92;11.50;;;1.80;99.90;;;;;;5065842;28;20404;-64
2023/03/09 06:23:24;;;;;;;24.77;12.13;;;1.80;99.90;;;;;;5067164;28;20048;-64
2023/03/09 06:25:49;;;;;;;29.88;14.75;;;1.80;99.90;;;;;;5067121;28;20064;-64
2023/03/09 06:28:15;;;;;;;21.30;11.13;;;1.80;99.90;;;;;;5067257;28;20032;-65
2023/03/09 06:30:40;;;;;;;24.90;11.88;;;1.80;99.90;;;;;;5067885;28;20037;-63
2023/03/09 06:33:07;;;;;;;23.25;12.10;;;1.80;99.90;;;;;;5067798;28;20041;-64
2023/03/09 06:35:34;;;;;;;22.40;11.48;;;1.90;99.90;;;;;;5069191;28;20032;-63
2023/03/09 06:38:01;;;;;;;22.67;12.20;;;1.80;99.90;;;;;;5070355;28;20109;-64
2023/03/09 06:40:28;;;;;;;23.45;11.85;;;1.90;99.90;;;;;;5071624;28;20052;-64
2023/03/09 06:42:53;;;;;;;25.20;12.48;;;1.80;99.90;;;;;;5071338;28;20182;-64
2023/03/09 06:45:21;;;;;;;23.50;11.88;;;1.80;99.90;;;;;;5071054;28;20139;-64
2023/03/09 06:47:46;;;;;;;24.35;12.18;;;1.80;99.90;;;;;;5071179;28;20511;-64
2023/03/09 06:50:12;;;;;;;25.08;11.55;;;1.90;99.90;;;;;;5071376;28;20028;-64
2023/03/09 06:52:38;;;;;;;23.65;12.00;;;1.90;99.90;;;;;;5071509;28;20048;-64
2023/03/09 06:55:04;;;;;;;27.38;12.30;;;1.90;99.90;;;;;;5070974;28;20043;-64
2023/03/09 06:57:30;;;;;;;25.73;12.13;;;1.90;99.90;;;;;;5071114;28;20040;-64
2023/03/09 06:59:55;;;;;;;26.00;11.45;;;1.90;99.90;;;;;;5071238;28;20615;-64
2023/03/09 07:02:22;;;;;;;24.58;11.43;;;1.90;99.90;;;;;;5070993;28;20051;-64
2023/03/09 07:04:47;;;;;;;23.30;12.45;;;1.90;99.90;;;;;;5070871;28;20129;-64
2023/03/09 07:07:15;;;;;;;24.45;12.57;;;1.90;99.90;;;;;;5070674;28;20072;-64
2023/03/09 07:09:40;;;;;;;25.05;12.43;;;1.90;99.90;;;;;;5070986;28;20037;-63
2023/03/09 07:12:06;;;;;;;25.73;12.35;;;1.90;99.90;;;;;;5070717;28;20966;-63
2023/03/09 07:14:32;;;;;;;25.25;12.68;;;2.00;99.90;;;;;;5070537;28;20040;-63
2023/03/09 07:16:57;;;;;;;24.10;12.18;;;2.00;99.90;;;;;;5070980;28;20044;-63
2023/03/09 07:19:23;;;;;;;21.27;10.45;;;2.00;99.90;;;;;;5070827;28;20053;-63
2023/03/09 07:21:49;;;;;;;23.20;12.23;;;2.00;99.90;;;;;;5070673;28;20040;-64
2023/03/09 07:24:16;;;;;;;24.58;12.75;;;2.00;99.90;;;;;;5070280;28;20043;-63
2023/03/09 07:26:42;;;;;;;22.55;11.98;;;2.00;99.90;;;;;;5070187;28;20763;-64
2023/03/09 07:29:07;;;;;;;29.10;13.02;;;2.00;99.90;;;;;;5070378;28;20047;-64
2023/03/09 07:31:33;;;;;;;26.08;12.52;;;2.00;99.90;;;;;;5070446;28;20090;-64
2023/03/09 07:33:59;;;;;;;24.67;11.82;;;2.00;99.90;;;;;;5070151;28;20401;-63
2023/03/09 07:36:25;;;;;;;24.77;12.43;;;2.10;99.90;;;;;;5070373;28;20036;-64
2023/03/09 07:38:50;;;;;;;23.05;11.63;;;2.10;99.90;;;;;;5070264;28;20052;-64
2023/03/09 07:41:17;;;;;;;29.30;12.52;;;2.10;99.90;;;;;;5070443;28;20052;-63
2023/03/09 07:43:44;;;;;;;26.80;12.85;;;2.10;99.90;;;;;;5070360;28;20040;-63
2023/03/09 07:46:11;;;;;;;31.45;12.65;;;2.20;99.90;;;;;;5070048;28;20562;-64
2023/03/09 07:48:37;;;;;;;25.52;12.70;;;2.20;99.90;;;;;;5070357;28;20045;-63
2023/03/09 07:51:03;;;;;;;27.73;13.15;;;2.20;99.90;;;;;;5070319;28;20162;-64
2023/03/09 07:53:33;;;;;;;22.23;11.55;;;2.20;99.90;;;;;;5070269;28;20120;-64
2023/03/09 07:56:03;;;;;;;23.48;11.70;;;2.30;99.90;;;;;;5069969;28;20177;-64
2023/03/09 07:58:29;;;;;;;23.92;12.18;;;2.30;99.90;;;;;;5070195;28;20408;-64
2023/03/09 08:00:56;;;;;;;26.70;12.07;;;2.30;99.90;;;;;;5070140;28;20097;-63
2023/03/09 08:03:22;;;;;;;25.75;12.23;;;2.30;99.90;;;;;;5069965;28;20161;-64
2023/03/09 08:05:49;;;;;;;27.63;11.77;;;2.30;99.90;;;;;;5069410;28;20879;-63
2023/03/09 08:08:15;;;;;;;23.00;11.40;;;2.30;99.90;;;;;;5069540;28;20041;-64
2023/03/09 08:10:47;;;;;;;23.42;11.98;;;2.40;99.90;;;;;;5065887;28;20523;-64
2023/03/09 08:13:13;;;;;;;24.10;11.87;;;2.40;99.90;;;;;;5049876;28;20049;-63
2023/03/09 08:15:38;;;;;;;26.73;12.55;;;2.40;99.90;;;;;;5049509;28;20271;-63
2023/03/09 08:18:04;;;;;;;25.00;13.35;;;2.50;99.90;;;;;;5049451;28;20516;-64
2023/03/09 08:20:30;;;;;;;24.88;13.02;;;2.50;99.90;;;;;;5049605;28;20044;-64
2023/03/09 08:22:56;;;;;;;26.55;12.80;;;2.50;99.90;;;;;;5049221;28;20502;-63
2023/03/09 08:25:22;;;;;;;23.55;12.73;;;2.40;99.90;;;;;;5049161;28;20090;-64
2023/03/09 08:27:48;;;;;;;24.67;12.50;;;2.50;99.90;;;;;;5049231;28;20045;-63
2023/03/09 08:30:18;;;;;;;23.35;12.07;;;2.50;99.90;;;;;;5049286;28;20032;-64
2023/03/09 08:32:47;;;;;;;25.02;11.82;;;2.50;99.90;;;;;;5049493;28;20567;-64
2023/03/09 08:35:14;;;;;;;23.30;12.52;;;2.50;99.90;;;;;;5047921;28;20107;-64
2023/03/09 08:37:40;;;;;;;25.23;13.07;;;2.50;99.90;;;;;;5033410;28;20116;-64
2023/03/09 08:40:06;;;;;;;24.45;12.85;;;2.50;99.90;;;;;;5029263;28;20124;-64
2023/03/09 08:42:33;;;;;;;25.23;12.10;;;2.60;99.90;;;;;;5029465;28;20099;-64
2023/03/09 08:44:59;;;;;;;23.92;12.30;;;2.50;99.90;;;;;;5029122;28;20116;-64
2023/03/09 08:47:25;;;;;;;26.10;12.73;;;2.60;99.90;;;;;;5029112;28;20112;-64
2023/03/09 08:49:50;;;;;;;24.95;12.57;;;2.60;99.90;;;;;;5029101;28;20037;-64
2023/03/09 08:52:16;;;;;;;23.20;11.80;;;2.60;99.90;;;;;;5028895;28;20117;-64
2023/03/09 08:54:42;;;;;;;25.42;12.15;;;2.60;99.90;;;;;;5028625;28;20076;-64
2023/03/09 08:57:08;;;;;;;25.80;13.30;;;2.60;99.90;;;;;;5028767;28;20053;-64
2023/03/09 08:59:34;;;;;;;23.38;12.50;;;2.60;99.90;;;;;;5028676;28;20037;-64
2023/03/09 09:02:00;;;;;;;23.85;11.85;;;2.70;99.90;;;;;;5029119;28;20117;-64
2023/03/09 09:04:26;;;;;;;25.52;11.77;;;2.70;99.90;;;;;;5028592;28;20226;-65
2023/03/09 09:06:51;;;;;;;28.05;13.60;;;2.70;99.90;;;;;;5028849;28;20870;-65
2023/03/09 09:09:17;;;;;;;25.88;12.10;;;2.70;99.90;;;;;;5028947;28;20037;-64
2023/03/09 09:11:42;;;;;;;25.45;12.10;;;2.80;99.90;;;;;;5028643;28;20765;-64
2023/03/09 09:14:08;;;;;;;25.80;12.75;;;2.80;99.90;;;;;;5028207;28;20064;-64
2023/03/09 09:16:34;;;;;;;23.40;12.05;;;2.90;99.90;;;;;;5028358;28;20049;-64
2023/03/09 09:18:59;;;;;;;23.33;12.00;;;2.90;99.90;;;;;;5028501;28;20037;-65
2023/03/09 09:21:27;;;;;;;27.95;12.68;;;2.90;99.90;;;;;;5028736;28;20041;-64
2023/03/09 09:23:54;;;;;;;20.92;11.13;;;2.90;99.90;;;;;;5028291;28;20049;-65
2023/03/09 09:26:20;;;;;;;20.58;12.25;;;2.90;99.90;;;;;;5028537;28;20056;-64
2023/03/09 09:28:46;;;;;;;24.83;12.10;;;2.90;99.90;;;;;;5028664;28;20108;-65
2023/03/09 09:31:19;;;;;;;23.55;11.75;;;3.00;99.90;;;;;;5028514;28;20057;-64
2023/03/09 09:33:45;;;;;;;26.88;13.63;;;2.90;99.90;;;;;;5028258;28;20048;-64
2023/03/09 09:36:14;;;;;;;21.08;11.82;;;3.00;99.90;;;;;;5028631;28;20049;-64
2023/03/09 09:38:41;;;;;;;23.80;12.77;;;3.00;99.90;;;;;;5028409;28;20045;-64
2023/03/09 09:41:40;;;;;;;29.25;13.40;;;3.10;99.90;;;;;;5029452;28;20148;-64
2023/03/09 09:44:10;;;;;;;25.23;12.90;;;3.00;99.90;;;;;;5035268;28;20079;-64
2023/03/09 09:46:39;;;;;;;24.27;12.30;;;3.10;99.90;;;;;;5038690;28;20037;-65
2023/03/09 09:49:04;;;;;;;26.40;13.27;;;3.10;99.90;;;;;;5037560;28;20041;-64
2023/03/09 09:51:46;;;;;;;27.40;12.40;;;3.10;99.90;;;;;;5037290;28;20048;-64
2023/03/09 09:54:27;;;;;;;25.70;13.23;;;3.10;99.90;;;;;;5038023;28;20112;-64
2023/03/09 09:56:57;;;;;;;23.95;12.52;;;3.10;99.90;;;;;;5038316;28;20037;-64
2023/03/09 09:59:50;;;;;;;22.95;12.40;;;3.10;99.90;;;;;;5036778;28;20502;-64
2023/03/09 10:02:15;;;;;;;25.40;12.60;;;3.20;99.90;;;;;;5041692;28;20036;-64
2023/03/09 10:05:11;;;;;;;24.33;12.35;;;3.20;99.90;;;;;;5038497;28;20052;-64
2023/03/09 10:07:39;;;;;;;25.35;12.93;;;3.20;99.90;;;;;;5014472;28;20057;-64
2023/03/09 10:10:13;;;;;;;25.20;13.32;;;3.20;99.90;;;;;;5038322;28;20440;-64
2023/03/09 10:12:40;;;;;;;24.55;13.18;;;3.20;99.90;;;;;;5039666;28;20050;-64
2023/03/09 10:15:13;;;;;;;28.50;12.20;;;3.30;99.90;;;;;;5033205;28;20650;-64
2023/03/09 10:17:48;;;;;;;23.80;13.05;;;3.30;99.90;;;;;;5039544;28;20044;-64
2023/03/09 10:20:22;;;;;;;22.38;12.65;;;3.30;99.90;;;;;;5050918;28;20746;-64
2023/03/09 10:22:50;;;;;;;23.20;12.50;;;3.30;99.90;;;;;;5051007;28;20040;-65
2023/03/09 10:25:20;;;;;;;23.25;12.75;;;3.30;99.90;;;;;;5050508;28;20041;-65
2023/03/09 10:28:07;;;;;;;24.98;12.50;;;3.30;99.90;;;;;;5051509;28;20152;-65
2023/03/09 10:30:32;;;;;;;24.42;12.52;;;3.30;99.90;;;;;;5065756;28;20072;-65
2023/03/09 10:33:22;;;;;;;27.65;12.40;;;3.40;99.90;;;;;;5067746;28;20072;-65
2023/03/09 10:36:11;;;;;;;26.13;12.43;;;3.40;99.90;;;;;;5044234;28;20041;-65
2023/03/09 10:38:39;;;;;;;24.08;12.18;;;3.40;99.90;;;;;;5041195;28;20059;-64
2023/03/09 10:41:17;;;;;;;29.55;13.20;;;3.40;99.90;;;;;;5041067;28;20064;-64
2023/03/09 10:43:43;;;;;;;25.45;12.30;;;3.40;99.90;;;;;;5039840;28;20142;-64
2023/03/09 10:46:24;;;;;;;24.85;12.93;;;3.30;99.90;;;;;;5041648;28;20029;-65
2023/03/09 10:49:08;;;;;;;25.17;12.73;;;3.40;99.90;;;;;;5041396;28;20509;-65
2023/03/09 10:51:38;;;;;;;25.27;12.82;;;3.40;99.90;;;;;;5040004;28;20033;-65
2023/03/09 10:54:20;;;;;;;25.80;12.77;;;3.50;99.90;;;;;;5040225;28;20281;-64
2023/03/09 10:56:46;;;;;;;27.48;12.82;;;3.40;99.90;;;;;;5041623;28;20037;-64
2023/03/09 10:59:18;;;;;;;25.23;12.50;;;3.40;99.90;;;;;;5039342;28;20127;-64
2023/03/09 11:01:47;;;;;;;27.10;12.23;;;3.40;99.90;;;;;;5040064;28;20041;-64
2023/03/09 11:04:21;;;;;;;26.67;12.60;;;3.50;99.90;;;;;;5039018;28;20048;-64
2023/03/09 11:06:53;;;;;;;27.38;13.57;;;3.50;99.90;;;;;;5039244;28;20059;-64
2023/03/09 11:09:44;;;;;;;24.70;12.02;;;3.50;99.90;;;;;;5039896;28;20502;-65
2023/03/09 11:12:27;;;;;;;25.50;12.35;;;3.50;99.90;;;;;;5030662;28;20063;-64
2023/03/09 11:15:23;;;;;;;29.02;14.13;;;3.40;99.90;;;;;;5034303;28;20049;-64
2023/03/09 11:17:49;;;;;;;25.92;12.73;;;3.50;99.90;;;;;;5054024;28;20036;-64
2023/03/09 11:20:18;;;;;;;25.08;12.52;;;3.50;99.90;;;;;;5061669;28;20534;-65
2023/03/09 11:22:57;;;;;;;23.83;13.18;;;3.50;99.90;;;;;;5050356;28;20052;-64
2023/03/09 11:25:34;;;;;;;23.70;12.48;;;3.50;99.90;;;;;;5050354;28;20090;-64
2023/03/09 11:28:10;;;;;;;28.02;14.18;;;3.50;99.90;;;;;;5050520;28;20099;-64
2023/03/09 11:30:36;;;;;;;23.02;12.55;;;3.60;99.90;;;;;;5050490;28;20112;-64
2023/03/09 11:33:08;;;;;;;26.17;12.52;;;3.60;99.90;;;;;;5050376;28;20521;-64
2023/03/09 11:35:34;;;;;;;22.27;12.32;;;3.60;99.90;;;;;;5050121;28;20056;-64
2023/03/09 11:38:03;;;;;;;26.08;12.95;;;3.60;99.90;;;;;;5048592;28;20036;-64
2023/03/09 11:40:31;;;;;;;25.20;12.73;;;3.60;99.90;;;;;;5049970;28;20044;-64
2023/03/09 11:42:56;;;;;;;25.92;13.65;;;3.60;99.90;;;;;;5050116;28;20650;-64
2023/03/09 11:45:29;;;;;;;28.67;14.35;;;3.60;99.90;;;;;;5049887;28;20045;-64
2023/03/09 11:47:55;;;;;;;26.13;13.30;;;3.70;99.90;;;;;;5049918;28;20111;-64
2023/03/09 11:50:49;;;;;;;26.42;13.05;;;3.70;99.90;;;;;;5049863;28;20438;-64
2023/03/09 11:53:24;;;;;;;25.42;12.43;;;3.60;99.90;;;;;;5047481;28;20128;-64
2023/03/09 11:55:54;;;;;;;28.08;13.18;;;3.70;99.90;;;;;;5048887;28;20526;-64
2023/03/09 11:58:28;;;;;;;27.05;13.02;;;3.60;99.90;;;;;;5042921;28;20098;-64
2023/03/09 12:01:19;;;;;;;28.02;13.35;;;3.70;99.90;;;;;;5049800;28;20080;-64
2023/03/09 12:04:06;;;;;;;25.50;13.23;;;3.70;99.90;;;;;;5038291;28;20130;-64
2023/03/09 12:06:38;;;;;;;24.73;11.80;;;3.70;99.90;;;;;;5048394;28;20063;-64
2023/03/09 12:09:17;;;;;;;24.27;12.70;;;3.70;99.90;;;;;;5049779;28;20044;-64
2023/03/09 12:12:17;;;;;;;25.75;13.57;;;3.70;99.90;;;;;;5049325;28;20662;-64
2023/03/09 12:14:47;;;;;;;30.98;13.75;;;3.70;99.90;;;;;;5024054;28;20060;-64
2023/03/09 12:17:20;;;;;;;25.05;12.55;;;3.70;99.90;;;;;;5049681;28;20715;-64
2023/03/09 12:19:49;;;;;;;23.10;11.95;;;3.80;99.90;;;;;;5049297;28;20052;-65
2023/03/09 12:22:27;;;;;;;26.08;13.07;;;3.80;99.90;;;;;;5048943;28;20551;-65
2023/03/09 12:25:16;;;;;;;28.63;13.65;;;3.80;99.90;;;;;;5049024;28;20494;-65
2023/03/09 12:27:59;;;;;;;23.88;12.35;;;3.80;99.90;;;;;;5049181;28;20045;-65
2023/03/09 12:30:50;;;;;;;27.38;13.10;;;3.80;99.90;;;;;;5049055;28;20045;-65
2023/03/09 12:33:41;;;;;;;26.33;13.00;;;3.80;99.90;;;;;;5048515;28;20041;-65
2023/03/09 12:36:22;;;;;;;23.65;12.38;;;3.90;99.90;;;;;;5049023;28;20040;-64
2023/03/09 12:39:24;;;;;;;26.15;11.63;;;3.90;99.90;;;;;;5049394;28;20410;-65
2023/03/09 12:42:03;;;;;;;28.23;15.00;;;3.90;99.90;;;;;;5049282;28;20102;-65
2023/03/09 12:44:44;;;;;;;27.45;13.98;;;3.90;99.90;;;;;;5049009;28;20041;-64
2023/03/09 12:47:37;;;;;;;27.20;13.93;;;3.80;99.90;;;;;;5049220;28;20044;-65
2023/03/09 12:50:21;;;;;;;28.40;14.48;;;3.80;99.90;;;;;;5046658;28;20079;-65